William P Hobby Airport
KHOU : rendu visible

Aérodrome :











RETROUVEZ-NOUS SUR...

 
LOGIN :

S'inscrire | Disclaimer

   EN    FR    IT 

 









Légende :    VFR   VFR Marginal   IFR   IFR Intensif   IFR Très Intensif
Visi : 
Plafond : 
>= 8 km
>= 3000ft
5 à 8 km
1000 à 3000 ft
1500m à 5 km
500 à 1000 ft
800 à 1500m
200 à 500 ft
< 800m
< 200 ft
Symboles :   Orages  Brouillard  Fortes neiges  Fortes précipitations  Vent > 20 kt






- Altitude de l'aérodrome : 46 ft
- Code IATA : HOU


KHOU - William P Hobby

DERNIER METAR :
  • 082053Z 17012KT 10SM BKN037 BKN250 24/15 A2996 RMK AO2 SLP150 T02390150 56033

METARs EXPIRÉS :
  • 081953Z 16008G16KT 10SM BKN034 BKN250 23/14 A2998 RMK AO2 SLP157 T02330139
  • 081917Z 19009KT 10SM BKN032 BKN250 23/14 A3000 RMK AO2 T02280139
  • 081853Z 18010KT 10SM BKN029 BKN250 22/14 A3002 RMK AO2 SLP172 T02220139

TAF KHOU
Valide du 08 à 18h jusqu'au 09 à 18h UTC


081748Z 0818/0918 14009KT P6SM FEW020 SCT250
FM090500 18006KT P6SM SCT025 BKN250
FM090700 19006KT P6SM SCT005 BKN025
FM091100 21005KT 5SM BR SCT008 OVC015
FM091630 23009KT P6SM OVC020



MET'MAP, la Météo Aéronautique d'un coup d'oeil ! - Copyright ORBIFLY Décembre 2007 - Disclaimer

ORBIFLY MET'MAP TEAM :

Programmation & Développement : Alexandra Zaïnal
Sur une idée originale de : Baudouin d'Aumeries
Assistance à la programmation : Marc-Olivier Méhu
Soutien technique & logistique : Manuel Goepfert

Contact : metmap@orbifly.com




SOURCES & CREDITS :

   NOAA       Earth
Advisory